sensor_id;sensor_type;location;lat;lon;timestamp;P1;durP1;ratioP1;P2;durP2;ratioP2
37791;SDS011;29527;55.766;37.570;2023-05-24T00:01:30;18.08;;;8.63;;
37791;SDS011;29527;55.766;37.570;2023-05-24T00:03:56;13.90;;;8.45;;
37791;SDS011;29527;55.766;37.570;2023-05-24T00:06:25;13.73;;;9.23;;
37791;SDS011;29527;55.766;37.570;2023-05-24T00:08:52;10.57;;;8.35;;
37791;SDS011;29527;55.766;37.570;2023-05-24T00:11:18;16.48;;;7.75;;
37791;SDS011;29527;55.766;37.570;2023-05-24T00:13:45;15.10;;;8.18;;
37791;SDS011;29527;55.766;37.570;2023-05-24T00:16:11;18.77;;;8.65;;
37791;SDS011;29527;55.766;37.570;2023-05-24T00:18:36;14.43;;;8.02;;
37791;SDS011;29527;55.766;37.570;2023-05-24T00:21:07;10.95;;;6.72;;
37791;SDS011;29527;55.766;37.570;2023-05-24T00:23:33;6.55;;;5.65;;
37791;SDS011;29527;55.766;37.570;2023-05-24T00:26:04;15.77;;;6.28;;
37791;SDS011;29527;55.766;37.570;2023-05-24T00:28:30;16.33;;;6.15;;
37791;SDS011;29527;55.766;37.570;2023-05-24T00:30:56;17.20;;;6.75;;
37791;SDS011;29527;55.766;37.570;2023-05-24T00:33:22;11.85;;;5.60;;
37791;SDS011;29527;55.766;37.570;2023-05-24T00:35:48;7.60;;;5.60;;
37791;SDS011;29527;55.766;37.570;2023-05-24T00:38:18;15.48;;;5.85;;
37791;SDS011;29527;55.766;37.570;2023-05-24T00:40:44;10.82;;;5.90;;
37791;SDS011;29527;55.766;37.570;2023-05-24T00:43:09;8.57;;;5.75;;
37791;SDS011;29527;55.766;37.570;2023-05-24T00:45:35;11.43;;;5.53;;
37791;SDS011;29527;55.766;37.570;2023-05-24T00:48:00;9.20;;;5.22;;
37791;SDS011;29527;55.766;37.570;2023-05-24T00:50:26;11.73;;;6.10;;
37791;SDS011;29527;55.766;37.570;2023-05-24T00:52:52;8.88;;;5.60;;
37791;SDS011;29527;55.766;37.570;2023-05-24T00:55:17;10.30;;;5.63;;
37791;SDS011;29527;55.766;37.570;2023-05-24T00:57:43;9.75;;;5.68;;
37791;SDS011;29527;55.766;37.570;2023-05-24T01:00:08;8.73;;;5.40;;
37791;SDS011;29527;55.766;37.570;2023-05-24T01:02:35;10.43;;;5.60;;
37791;SDS011;29527;55.766;37.570;2023-05-24T01:05:02;7.80;;;5.70;;
37791;SDS011;29527;55.766;37.570;2023-05-24T01:07:41;8.98;;;6.07;;
37791;SDS011;29527;55.766;37.570;2023-05-24T01:18:10;13.15;;;5.97;;
37791;SDS011;29527;55.766;37.570;2023-05-24T01:20:41;12.00;;;6.88;;
37791;SDS011;29527;55.766;37.570;2023-05-24T01:26:03;13.35;;;6.38;;
37791;SDS011;29527;55.766;37.570;2023-05-24T01:28:41;12.70;;;5.70;;
37791;SDS011;29527;55.766;37.570;2023-05-24T01:31:09;12.60;;;5.70;;
37791;SDS011;29527;55.766;37.570;2023-05-24T01:33:40;12.65;;;6.38;;
37791;SDS011;29527;55.766;37.570;2023-05-24T01:36:06;12.15;;;6.60;;
37791;SDS011;29527;55.766;37.570;2023-05-24T01:38:32;12.30;;;6.15;;
37791;SDS011;29527;55.766;37.570;2023-05-24T01:41:00;11.63;;;5.88;;
37791;SDS011;29527;55.766;37.570;2023-05-24T01:43:40;12.45;;;6.15;;
37791;SDS011;29527;55.766;37.570;2023-05-24T01:46:14;11.57;;;5.97;;
37791;SDS011;29527;55.766;37.570;2023-05-24T01:51:47;7.82;;;5.97;;
37791;SDS011;29527;55.766;37.570;2023-05-24T01:54:22;11.82;;;5.75;;
37791;SDS011;29527;55.766;37.570;2023-05-24T01:56:51;13.02;;;6.28;;
37791;SDS011;29527;55.766;37.570;2023-05-24T01:59:17;10.63;;;6.07;;
37791;SDS011;29527;55.766;37.570;2023-05-24T02:01:45;11.50;;;6.20;;
37791;SDS011;29527;55.766;37.570;2023-05-24T02:04:12;12.05;;;6.10;;
37791;SDS011;29527;55.766;37.570;2023-05-24T02:06:37;9.00;;;5.85;;
37791;SDS011;29527;55.766;37.570;2023-05-24T02:09:03;12.43;;;6.03;;
37791;SDS011;29527;55.766;37.570;2023-05-24T02:11:28;9.13;;;5.90;;
37791;SDS011;29527;55.766;37.570;2023-05-24T02:13:55;11.10;;;5.70;;
37791;SDS011;29527;55.766;37.570;2023-05-24T02:16:21;10.18;;;6.70;;
37791;SDS011;29527;55.766;37.570;2023-05-24T02:18:49;9.13;;;6.15;;
37791;SDS011;29527;55.766;37.570;2023-05-24T02:21:14;16.30;;;6.10;;
37791;SDS011;29527;55.766;37.570;2023-05-24T02:23:40;11.35;;;6.05;;
37791;SDS011;29527;55.766;37.570;2023-05-24T02:26:06;10.25;;;6.28;;
37791;SDS011;29527;55.766;37.570;2023-05-24T02:28:35;13.15;;;6.15;;
37791;SDS011;29527;55.766;37.570;2023-05-24T02:31:01;8.55;;;5.80;;
37791;SDS011;29527;55.766;37.570;2023-05-24T02:33:27;7.88;;;5.63;;
37791;SDS011;29527;55.766;37.570;2023-05-24T02:35:54;11.23;;;6.25;;
37791;SDS011;29527;55.766;37.570;2023-05-24T02:38:20;8.20;;;5.30;;
37791;SDS011;29527;55.766;37.570;2023-05-24T02:40:46;8.15;;;5.55;;
37791;SDS011;29527;55.766;37.570;2023-05-24T02:43:12;11.93;;;5.93;;
37791;SDS011;29527;55.766;37.570;2023-05-24T02:45:37;9.30;;;6.20;;
37791;SDS011;29527;55.766;37.570;2023-05-24T02:48:03;14.77;;;6.25;;
37791;SDS011;29527;55.766;37.570;2023-05-24T02:50:29;13.57;;;6.63;;
37791;SDS011;29527;55.766;37.570;2023-05-24T02:52:54;14.20;;;6.65;;
37791;SDS011;29527;55.766;37.570;2023-05-24T02:55:20;14.00;;;6.57;;
37791;SDS011;29527;55.766;37.570;2023-05-24T02:57:45;10.88;;;6.28;;
37791;SDS011;29527;55.766;37.570;2023-05-24T03:00:12;15.27;;;6.60;;
37791;SDS011;29527;55.766;37.570;2023-05-24T03:02:38;11.20;;;6.97;;
37791;SDS011;29527;55.766;37.570;2023-05-24T03:05:05;11.80;;;6.55;;
37791;SDS011;29527;55.766;37.570;2023-05-24T03:07:32;12.48;;;6.53;;
37791;SDS011;29527;55.766;37.570;2023-05-24T03:09:57;13.75;;;6.40;;
37791;SDS011;29527;55.766;37.570;2023-05-24T03:12:23;14.93;;;6.10;;
37791;SDS011;29527;55.766;37.570;2023-05-24T03:14:48;8.85;;;6.15;;
37791;SDS011;29527;55.766;37.570;2023-05-24T03:17:14;14.55;;;6.90;;
37791;SDS011;29527;55.766;37.570;2023-05-24T03:19:40;11.38;;;6.20;;
37791;SDS011;29527;55.766;37.570;2023-05-24T03:22:06;7.38;;;6.30;;
37791;SDS011;29527;55.766;37.570;2023-05-24T03:24:31;10.02;;;6.03;;
37791;SDS011;29527;55.766;37.570;2023-05-24T03:26:57;9.57;;;5.55;;
37791;SDS011;29527;55.766;37.570;2023-05-24T03:29:23;9.68;;;5.78;;
37791;SDS011;29527;55.766;37.570;2023-05-24T03:31:48;12.95;;;5.75;;
37791;SDS011;29527;55.766;37.570;2023-05-24T03:34:14;12.00;;;6.40;;
37791;SDS011;29527;55.766;37.570;2023-05-24T03:36:39;10.90;;;6.00;;
37791;SDS011;29527;55.766;37.570;2023-05-24T03:39:06;8.73;;;5.78;;
37791;SDS011;29527;55.766;37.570;2023-05-24T03:41:32;7.47;;;5.20;;
37791;SDS011;29527;55.766;37.570;2023-05-24T03:43:58;9.93;;;5.50;;
37791;SDS011;29527;55.766;37.570;2023-05-24T03:46:24;9.52;;;5.38;;
37791;SDS011;29527;55.766;37.570;2023-05-24T03:48:49;15.80;;;5.68;;
37791;SDS011;29527;55.766;37.570;2023-05-24T03:51:15;6.63;;;5.50;;
37791;SDS011;29527;55.766;37.570;2023-05-24T03:53:41;11.60;;;5.22;;
37791;SDS011;29527;55.766;37.570;2023-05-24T03:56:06;7.22;;;5.00;;
37791;SDS011;29527;55.766;37.570;2023-05-24T03:58:32;7.57;;;5.65;;
37791;SDS011;29527;55.766;37.570;2023-05-24T04:00:57;8.68;;;5.35;;
37791;SDS011;29527;55.766;37.570;2023-05-24T04:03:23;9.93;;;5.78;;
37791;SDS011;29527;55.766;37.570;2023-05-24T04:05:50;11.98;;;5.70;;
37791;SDS011;29527;55.766;37.570;2023-05-24T04:08:16;14.07;;;6.43;;
37791;SDS011;29527;55.766;37.570;2023-05-24T04:10:41;10.00;;;6.53;;
37791;SDS011;29527;55.766;37.570;2023-05-24T04:13:07;12.32;;;6.25;;
37791;SDS011;29527;55.766;37.570;2023-05-24T04:15:33;13.20;;;6.45;;
37791;SDS011;29527;55.766;37.570;2023-05-24T04:17:59;11.15;;;6.68;;
37791;SDS011;29527;55.766;37.570;2023-05-24T04:20:24;12.43;;;6.45;;
37791;SDS011;29527;55.766;37.570;2023-05-24T04:22:52;12.55;;;6.70;;
37791;SDS011;29527;55.766;37.570;2023-05-24T04:25:18;10.35;;;6.45;;
37791;SDS011;29527;55.766;37.570;2023-05-24T04:27:45;14.35;;;7.28;;
37791;SDS011;29527;55.766;37.570;2023-05-24T04:30:14;11.23;;;6.18;;
37791;SDS011;29527;55.766;37.570;2023-05-24T04:32:41;13.88;;;6.75;;
37791;SDS011;29527;55.766;37.570;2023-05-24T04:35:09;12.93;;;6.75;;
37791;SDS011;29527;55.766;37.570;2023-05-24T04:37:34;10.52;;;5.82;;
37791;SDS011;29527;55.766;37.570;2023-05-24T04:40:00;13.20;;;6.82;;
37791;SDS011;29527;55.766;37.570;2023-05-24T04:42:29;12.48;;;6.55;;
37791;SDS011;29527;55.766;37.570;2023-05-24T04:44:56;9.85;;;6.50;;
37791;SDS011;29527;55.766;37.570;2023-05-24T04:47:22;12.40;;;6.30;;
37791;SDS011;29527;55.766;37.570;2023-05-24T04:49:47;13.68;;;7.00;;
37791;SDS011;29527;55.766;37.570;2023-05-24T04:52:13;10.90;;;6.78;;
37791;SDS011;29527;55.766;37.570;2023-05-24T04:54:39;13.18;;;6.32;;
37791;SDS011;29527;55.766;37.570;2023-05-24T04:57:04;11.93;;;5.78;;
37791;SDS011;29527;55.766;37.570;2023-05-24T04:59:30;10.50;;;6.07;;
37791;SDS011;29527;55.766;37.570;2023-05-24T05:01:55;11.48;;;4.88;;
37791;SDS011;29527;55.766;37.570;2023-05-24T05:04:21;8.85;;;5.30;;
37791;SDS011;29527;55.766;37.570;2023-05-24T05:06:46;10.80;;;5.38;;
37791;SDS011;29527;55.766;37.570;2023-05-24T05:09:12;10.57;;;5.05;;
37791;SDS011;29527;55.766;37.570;2023-05-24T05:11:39;8.25;;;5.15;;
37791;SDS011;29527;55.766;37.570;2023-05-24T05:14:05;7.68;;;4.60;;
37791;SDS011;29527;55.766;37.570;2023-05-24T05:16:34;6.65;;;5.00;;
37791;SDS011;29527;55.766;37.570;2023-05-24T05:19:00;9.88;;;5.30;;
37791;SDS011;29527;55.766;37.570;2023-05-24T05:21:29;6.38;;;4.70;;
37791;SDS011;29527;55.766;37.570;2023-05-24T05:23:59;9.30;;;4.82;;
37791;SDS011;29527;55.766;37.570;2023-05-24T05:26:28;11.52;;;5.45;;
37791;SDS011;29527;55.766;37.570;2023-05-24T05:28:54;11.27;;;5.63;;
37791;SDS011;29527;55.766;37.570;2023-05-24T05:31:21;10.27;;;5.05;;
37791;SDS011;29527;55.766;37.570;2023-05-24T05:33:46;5.90;;;4.80;;
37791;SDS011;29527;55.766;37.570;2023-05-24T05:36:12;6.45;;;4.80;;
37791;SDS011;29527;55.766;37.570;2023-05-24T05:38:38;10.43;;;4.85;;
37791;SDS011;29527;55.766;37.570;2023-05-24T05:41:03;7.97;;;5.35;;
37791;SDS011;29527;55.766;37.570;2023-05-24T05:43:29;9.75;;;5.40;;
37791;SDS011;29527;55.766;37.570;2023-05-24T05:45:55;7.35;;;4.85;;
37791;SDS011;29527;55.766;37.570;2023-05-24T05:48:21;7.50;;;5.45;;
37791;SDS011;29527;55.766;37.570;2023-05-24T05:50:47;11.23;;;5.70;;
37791;SDS011;29527;55.766;37.570;2023-05-24T05:53:13;14.43;;;5.57;;
37791;SDS011;29527;55.766;37.570;2023-05-24T05:55:40;8.70;;;5.43;;
37791;SDS011;29527;55.766;37.570;2023-05-24T05:58:05;13.23;;;6.07;;
37791;SDS011;29527;55.766;37.570;2023-05-24T06:00:30;12.10;;;5.32;;
37791;SDS011;29527;55.766;37.570;2023-05-24T06:02:56;11.82;;;5.28;;
37791;SDS011;29527;55.766;37.570;2023-05-24T06:05:21;9.13;;;5.05;;
37791;SDS011;29527;55.766;37.570;2023-05-24T06:07:47;5.95;;;4.75;;
37791;SDS011;29527;55.766;37.570;2023-05-24T06:10:13;9.85;;;5.82;;
37791;SDS011;29527;55.766;37.570;2023-05-24T06:12:38;14.35;;;5.82;;
37791;SDS011;29527;55.766;37.570;2023-05-24T06:15:05;9.70;;;5.88;;
37791;SDS011;29527;55.766;37.570;2023-05-24T06:17:32;13.13;;;5.97;;
37791;SDS011;29527;55.766;37.570;2023-05-24T06:19:58;14.48;;;6.10;;
37791;SDS011;29527;55.766;37.570;2023-05-24T06:22:25;13.25;;;6.63;;
37791;SDS011;29527;55.766;37.570;2023-05-24T06:24:53;13.95;;;6.28;;
37791;SDS011;29527;55.766;37.570;2023-05-24T06:27:19;11.10;;;7.00;;
37791;SDS011;29527;55.766;37.570;2023-05-24T06:29:45;11.23;;;6.72;;
37791;SDS011;29527;55.766;37.570;2023-05-24T06:32:11;12.80;;;6.38;;
37791;SDS011;29527;55.766;37.570;2023-05-24T06:34:36;9.80;;;7.13;;
37791;SDS011;29527;55.766;37.570;2023-05-24T06:37:02;13.80;;;6.57;;
37791;SDS011;29527;55.766;37.570;2023-05-24T06:39:28;15.70;;;6.72;;
37791;SDS011;29527;55.766;37.570;2023-05-24T06:41:53;14.68;;;6.32;;
37791;SDS011;29527;55.766;37.570;2023-05-24T06:44:19;11.68;;;6.55;;
37791;SDS011;29527;55.766;37.570;2023-05-24T06:46:46;13.55;;;6.07;;
37791;SDS011;29527;55.766;37.570;2023-05-24T06:49:11;10.35;;;6.63;;
37791;SDS011;29527;55.766;37.570;2023-05-24T06:51:37;7.85;;;5.82;;
37791;SDS011;29527;55.766;37.570;2023-05-24T06:54:02;10.07;;;5.07;;
37791;SDS011;29527;55.766;37.570;2023-05-24T06:56:28;9.48;;;5.47;;
37791;SDS011;29527;55.766;37.570;2023-05-24T06:58:54;11.30;;;5.75;;
37791;SDS011;29527;55.766;37.570;2023-05-24T07:01:20;14.27;;;6.50;;
37791;SDS011;29527;55.766;37.570;2023-05-24T07:03:47;10.23;;;6.78;;
37791;SDS011;29527;55.766;37.570;2023-05-24T07:06:13;10.82;;;6.57;;
37791;SDS011;29527;55.766;37.570;2023-05-24T07:08:40;14.27;;;6.28;;
37791;SDS011;29527;55.766;37.570;2023-05-24T07:11:08;14.93;;;7.07;;
37791;SDS011;29527;55.766;37.570;2023-05-24T07:13:34;11.75;;;6.10;;
37791;SDS011;29527;55.766;37.570;2023-05-24T07:15:59;8.93;;;5.20;;
37791;SDS011;29527;55.766;37.570;2023-05-24T07:18:25;9.20;;;5.68;;
37791;SDS011;29527;55.766;37.570;2023-05-24T07:20:51;8.73;;;4.60;;
37791;SDS011;29527;55.766;37.570;2023-05-24T07:23:16;6.85;;;4.10;;
37791;SDS011;29527;55.766;37.570;2023-05-24T07:25:42;12.15;;;4.80;;
37791;SDS011;29527;55.766;37.570;2023-05-24T07:28:07;9.20;;;5.18;;
37791;SDS011;29527;55.766;37.570;2023-05-24T07:30:33;9.45;;;5.82;;
37791;SDS011;29527;55.766;37.570;2023-05-24T07:32:59;13.80;;;6.45;;
37791;SDS011;29527;55.766;37.570;2023-05-24T07:35:25;13.70;;;6.22;;
37791;SDS011;29527;55.766;37.570;2023-05-24T07:37:53;9.60;;;5.90;;
37791;SDS011;29527;55.766;37.570;2023-05-24T07:40:18;11.90;;;6.15;;
37791;SDS011;29527;55.766;37.570;2023-05-24T07:42:45;13.35;;;6.13;;
37791;SDS011;29527;55.766;37.570;2023-05-24T07:45:11;14.70;;;6.28;;
37791;SDS011;29527;55.766;37.570;2023-05-24T07:47:38;11.98;;;6.50;;
37791;SDS011;29527;55.766;37.570;2023-05-24T07:50:03;12.02;;;7.03;;
37791;SDS011;29527;55.766;37.570;2023-05-24T07:52:30;14.75;;;6.53;;
37791;SDS011;29527;55.766;37.570;2023-05-24T07:54:55;11.80;;;6.15;;
37791;SDS011;29527;55.766;37.570;2023-05-24T07:57:21;12.65;;;6.93;;
37791;SDS011;29527;55.766;37.570;2023-05-24T07:59:46;8.93;;;5.43;;
37791;SDS011;29527;55.766;37.570;2023-05-24T08:02:12;8.20;;;5.65;;
37791;SDS011;29527;55.766;37.570;2023-05-24T08:04:41;8.35;;;5.40;;
37791;SDS011;29527;55.766;37.570;2023-05-24T08:07:07;11.00;;;5.68;;
37791;SDS011;29527;55.766;37.570;2023-05-24T08:09:33;12.32;;;5.75;;
37791;SDS011;29527;55.766;37.570;2023-05-24T08:12:01;13.15;;;5.82;;
37791;SDS011;29527;55.766;37.570;2023-05-24T08:14:28;11.38;;;5.25;;
37791;SDS011;29527;55.766;37.570;2023-05-24T08:16:54;14.98;;;5.85;;
37791;SDS011;29527;55.766;37.570;2023-05-24T08:19:20;14.52;;;5.75;;
37791;SDS011;29527;55.766;37.570;2023-05-24T08:21:46;14.90;;;5.40;;
37791;SDS011;29527;55.766;37.570;2023-05-24T08:24:11;12.70;;;6.38;;
37791;SDS011;29527;55.766;37.570;2023-05-24T08:26:37;10.65;;;5.90;;
37791;SDS011;29527;55.766;37.570;2023-05-24T08:29:03;10.90;;;5.82;;
37791;SDS011;29527;55.766;37.570;2023-05-24T08:31:30;11.68;;;6.43;;
37791;SDS011;29527;55.766;37.570;2023-05-24T08:33:57;12.38;;;5.90;;
37791;SDS011;29527;55.766;37.570;2023-05-24T08:36:23;16.25;;;5.40;;
37791;SDS011;29527;55.766;37.570;2023-05-24T08:38:49;11.35;;;5.53;;
37791;SDS011;29527;55.766;37.570;2023-05-24T08:41:15;10.68;;;5.50;;
37791;SDS011;29527;55.766;37.570;2023-05-24T08:43:40;14.00;;;6.57;;
37791;SDS011;29527;55.766;37.570;2023-05-24T08:46:07;10.52;;;6.78;;
37791;SDS011;29527;55.766;37.570;2023-05-24T08:48:35;10.43;;;6.10;;
37791;SDS011;29527;55.766;37.570;2023-05-24T08:53:35;10.73;;;5.80;;
37791;SDS011;29527;55.766;37.570;2023-05-24T08:56:03;14.02;;;6.32;;
37791;SDS011;29527;55.766;37.570;2023-05-24T08:58:30;12.60;;;6.15;;
37791;SDS011;29527;55.766;37.570;2023-05-24T09:00:57;11.57;;;6.07;;
37791;SDS011;29527;55.766;37.570;2023-05-24T09:03:22;12.55;;;6.72;;
37791;SDS011;29527;55.766;37.570;2023-05-24T09:05:48;11.43;;;5.78;;
37791;SDS011;29527;55.766;37.570;2023-05-24T09:08:14;15.95;;;6.55;;
37791;SDS011;29527;55.766;37.570;2023-05-24T09:10:42;10.80;;;5.55;;
37791;SDS011;29527;55.766;37.570;2023-05-24T09:13:09;14.73;;;5.90;;
37791;SDS011;29527;55.766;37.570;2023-05-24T09:15:36;11.90;;;6.03;;
37791;SDS011;29527;55.766;37.570;2023-05-24T09:18:02;14.10;;;6.55;;
37791;SDS011;29527;55.766;37.570;2023-05-24T09:20:27;9.52;;;6.03;;
37791;SDS011;29527;55.766;37.570;2023-05-24T09:22:54;11.63;;;6.22;;
37791;SDS011;29527;55.766;37.570;2023-05-24T09:25:21;11.35;;;5.60;;
37791;SDS011;29527;55.766;37.570;2023-05-24T09:27:49;9.95;;;5.95;;
37791;SDS011;29527;55.766;37.570;2023-05-24T09:30:16;11.50;;;5.05;;
37791;SDS011;29527;55.766;37.570;2023-05-24T09:32:52;8.85;;;5.50;;
37791;SDS011;29527;55.766;37.570;2023-05-24T09:35:22;12.75;;;5.93;;
37791;SDS011;29527;55.766;37.570;2023-05-24T09:37:47;10.90;;;5.55;;
37791;SDS011;29527;55.766;37.570;2023-05-24T09:40:17;14.77;;;5.35;;
37791;SDS011;29527;55.766;37.570;2023-05-24T09:42:46;11.52;;;4.90;;
37791;SDS011;29527;55.766;37.570;2023-05-24T09:45:15;11.93;;;5.82;;
37791;SDS011;29527;55.766;37.570;2023-05-24T09:47:41;10.82;;;5.22;;
37791;SDS011;29527;55.766;37.570;2023-05-24T09:50:15;10.02;;;5.43;;
37791;SDS011;29527;55.766;37.570;2023-05-24T09:52:41;12.68;;;5.13;;
37791;SDS011;29527;55.766;37.570;2023-05-24T09:57:40;17.00;;;5.95;;
37791;SDS011;29527;55.766;37.570;2023-05-24T10:00:07;12.75;;;6.00;;
37791;SDS011;29527;55.766;37.570;2023-05-24T10:02:41;11.48;;;5.53;;
37791;SDS011;29527;55.766;37.570;2023-05-24T10:05:08;10.23;;;4.93;;
37791;SDS011;29527;55.766;37.570;2023-05-24T10:07:35;10.30;;;5.28;;
37791;SDS011;29527;55.766;37.570;2023-05-24T10:10:03;11.45;;;5.45;;
37791;SDS011;29527;55.766;37.570;2023-05-24T10:12:30;11.57;;;5.25;;
37791;SDS011;29527;55.766;37.570;2023-05-24T10:14:58;10.68;;;5.80;;
37791;SDS011;29527;55.766;37.570;2023-05-24T10:17:25;12.77;;;6.15;;
37791;SDS011;29527;55.766;37.570;2023-05-24T10:19:52;12.45;;;5.38;;
37791;SDS011;29527;55.766;37.570;2023-05-24T10:22:17;10.88;;;5.57;;
37791;SDS011;29527;55.766;37.570;2023-05-24T10:24:47;14.50;;;6.40;;
37791;SDS011;29527;55.766;37.570;2023-05-24T10:27:16;12.43;;;5.72;;
37791;SDS011;29527;55.766;37.570;2023-05-24T10:29:50;12.73;;;6.05;;
37791;SDS011;29527;55.766;37.570;2023-05-24T10:32:25;12.23;;;5.30;;
37791;SDS011;29527;55.766;37.570;2023-05-24T10:34:58;12.77;;;5.63;;
37791;SDS011;29527;55.766;37.570;2023-05-24T10:37:24;16.13;;;5.68;;
37791;SDS011;29527;55.766;37.570;2023-05-24T10:39:52;10.07;;;5.43;;
37791;SDS011;29527;55.766;37.570;2023-05-24T10:42:17;15.48;;;5.82;;
37791;SDS011;29527;55.766;37.570;2023-05-24T10:44:44;8.50;;;5.18;;
37791;SDS011;29527;55.766;37.570;2023-05-24T10:47:10;15.13;;;5.45;;
37791;SDS011;29527;55.766;37.570;2023-05-24T10:49:46;8.38;;;4.95;;
37791;SDS011;29527;55.766;37.570;2023-05-24T10:52:21;6.93;;;4.97;;
37791;SDS011;29527;55.766;37.570;2023-05-24T10:55:05;10.65;;;5.47;;
37791;SDS011;29527;55.766;37.570;2023-05-24T10:57:34;14.10;;;5.45;;
37791;SDS011;29527;55.766;37.570;2023-05-24T11:02:47;11.32;;;5.22;;
37791;SDS011;29527;55.766;37.570;2023-05-24T11:05:13;7.88;;;4.20;;
37791;SDS011;29527;55.766;37.570;2023-05-24T11:07:43;8.15;;;4.55;;
37791;SDS011;29527;55.766;37.570;2023-05-24T11:10:12;11.00;;;5.18;;
37791;SDS011;29527;55.766;37.570;2023-05-24T11:13:00;9.68;;;4.03;;
37791;SDS011;29527;55.766;37.570;2023-05-24T11:15:26;11.75;;;5.15;;
37791;SDS011;29527;55.766;37.570;2023-05-24T11:20:37;9.23;;;4.22;;
37791;SDS011;29527;55.766;37.570;2023-05-24T11:23:03;11.35;;;5.38;;
37791;SDS011;29527;55.766;37.570;2023-05-24T11:25:32;9.23;;;4.95;;
37791;SDS011;29527;55.766;37.570;2023-05-24T11:27:58;10.00;;;4.80;;
37791;SDS011;29527;55.766;37.570;2023-05-24T11:30:25;12.13;;;5.10;;
37791;SDS011;29527;55.766;37.570;2023-05-24T11:32:51;10.65;;;4.88;;
37791;SDS011;29527;55.766;37.570;2023-05-24T11:35:17;9.82;;;4.63;;
37791;SDS011;29527;55.766;37.570;2023-05-24T11:37:43;11.98;;;5.50;;
37791;SDS011;29527;55.766;37.570;2023-05-24T11:40:09;16.23;;;5.20;;
37791;SDS011;29527;55.766;37.570;2023-05-24T11:42:36;12.98;;;6.55;;
37791;SDS011;29527;55.766;37.570;2023-05-24T11:45:02;12.57;;;5.85;;
37791;SDS011;29527;55.766;37.570;2023-05-24T11:47:34;8.63;;;5.50;;
37791;SDS011;29527;55.766;37.570;2023-05-24T11:50:01;13.05;;;5.95;;
37791;SDS011;29527;55.766;37.570;2023-05-24T11:52:27;15.93;;;6.05;;
37791;SDS011;29527;55.766;37.570;2023-05-24T11:54:53;10.93;;;5.50;;
37791;SDS011;29527;55.766;37.570;2023-05-24T11:57:29;12.88;;;6.10;;
37791;SDS011;29527;55.766;37.570;2023-05-24T12:00:05;11.93;;;6.20;;
37791;SDS011;29527;55.766;37.570;2023-05-24T12:02:35;9.55;;;5.25;;
37791;SDS011;29527;55.766;37.570;2023-05-24T12:05:08;10.00;;;5.55;;
37791;SDS011;29527;55.766;37.570;2023-05-24T12:07:36;9.00;;;5.78;;
37791;SDS011;29527;55.766;37.570;2023-05-24T12:10:02;9.88;;;5.53;;
37791;SDS011;29527;55.766;37.570;2023-05-24T12:12:30;7.70;;;4.63;;
37791;SDS011;29527;55.766;37.570;2023-05-24T12:14:55;9.63;;;5.10;;
37791;SDS011;29527;55.766;37.570;2023-05-24T12:17:21;11.00;;;5.60;;
37791;SDS011;29527;55.766;37.570;2023-05-24T12:19:49;10.30;;;5.35;;
37791;SDS011;29527;55.766;37.570;2023-05-24T12:22:15;7.43;;;5.18;;
37791;SDS011;29527;55.766;37.570;2023-05-24T12:24:41;14.63;;;6.20;;
37791;SDS011;29527;55.766;37.570;2023-05-24T12:27:07;11.10;;;4.85;;
37791;SDS011;29527;55.766;37.570;2023-05-24T12:29:34;9.60;;;5.25;;
37791;SDS011;29527;55.766;37.570;2023-05-24T12:32:04;7.82;;;4.75;;
37791;SDS011;29527;55.766;37.570;2023-05-24T12:34:35;12.05;;;5.07;;
37791;SDS011;29527;55.766;37.570;2023-05-24T12:37:01;9.85;;;5.50;;
37791;SDS011;29527;55.766;37.570;2023-05-24T12:39:28;11.50;;;5.22;;
37791;SDS011;29527;55.766;37.570;2023-05-24T12:42:01;13.95;;;5.78;;
37791;SDS011;29527;55.766;37.570;2023-05-24T12:44:28;19.77;;;6.65;;
37791;SDS011;29527;55.766;37.570;2023-05-24T12:46:56;9.18;;;6.13;;
37791;SDS011;29527;55.766;37.570;2023-05-24T12:49:23;13.30;;;5.70;;
37791;SDS011;29527;55.766;37.570;2023-05-24T12:51:50;14.23;;;6.28;;
37791;SDS011;29527;55.766;37.570;2023-05-24T12:54:17;15.05;;;5.53;;
37791;SDS011;29527;55.766;37.570;2023-05-24T12:56:44;9.02;;;5.70;;
37791;SDS011;29527;55.766;37.570;2023-05-24T12:59:09;12.27;;;5.72;;
37791;SDS011;29527;55.766;37.570;2023-05-24T13:01:36;10.55;;;6.47;;
37791;SDS011;29527;55.766;37.570;2023-05-24T13:04:01;7.38;;;5.60;;
37791;SDS011;29527;55.766;37.570;2023-05-24T13:06:27;14.13;;;6.15;;
37791;SDS011;29527;55.766;37.570;2023-05-24T13:08:52;10.80;;;5.30;;
37791;SDS011;29527;55.766;37.570;2023-05-24T13:11:18;10.45;;;5.75;;
37791;SDS011;29527;55.766;37.570;2023-05-24T13:13:43;14.50;;;5.65;;
37791;SDS011;29527;55.766;37.570;2023-05-24T13:16:10;14.77;;;5.65;;
37791;SDS011;29527;55.766;37.570;2023-05-24T13:18:36;14.63;;;5.20;;
37791;SDS011;29527;55.766;37.570;2023-05-24T13:21:05;11.65;;;5.50;;
37791;SDS011;29527;55.766;37.570;2023-05-24T13:23:31;13.77;;;5.70;;
37791;SDS011;29527;55.766;37.570;2023-05-24T13:25:58;11.93;;;5.72;;
37791;SDS011;29527;55.766;37.570;2023-05-24T13:28:24;11.02;;;5.95;;
37791;SDS011;29527;55.766;37.570;2023-05-24T13:30:50;11.50;;;6.30;;
37791;SDS011;29527;55.766;37.570;2023-05-24T13:33:15;13.75;;;7.35;;
37791;SDS011;29527;55.766;37.570;2023-05-24T13:35:41;10.73;;;6.18;;
37791;SDS011;29527;55.766;37.570;2023-05-24T13:38:07;13.50;;;6.60;;
37791;SDS011;29527;55.766;37.570;2023-05-24T13:40:33;17.83;;;7.63;;
37791;SDS011;29527;55.766;37.570;2023-05-24T13:42:59;18.65;;;8.05;;
37791;SDS011;29527;55.766;37.570;2023-05-24T13:45:24;14.63;;;7.22;;
37791;SDS011;29527;55.766;37.570;2023-05-24T13:47:50;15.05;;;8.00;;
37791;SDS011;29527;55.766;37.570;2023-05-24T13:50:16;18.02;;;8.00;;
37791;SDS011;29527;55.766;37.570;2023-05-24T13:52:42;11.43;;;7.63;;
37791;SDS011;29527;55.766;37.570;2023-05-24T13:55:07;12.85;;;7.85;;
37791;SDS011;29527;55.766;37.570;2023-05-24T13:57:34;17.45;;;8.20;;
37791;SDS011;29527;55.766;37.570;2023-05-24T13:59:59;11.52;;;7.93;;
37791;SDS011;29527;55.766;37.570;2023-05-24T14:02:26;20.98;;;8.10;;
37791;SDS011;29527;55.766;37.570;2023-05-24T14:04:52;17.48;;;8.43;;
37791;SDS011;29527;55.766;37.570;2023-05-24T14:07:18;20.08;;;7.90;;
37791;SDS011;29527;55.766;37.570;2023-05-24T14:09:43;19.30;;;8.13;;
37791;SDS011;29527;55.766;37.570;2023-05-24T14:12:09;14.25;;;8.38;;
37791;SDS011;29527;55.766;37.570;2023-05-24T14:14:35;13.95;;;7.88;;
37791;SDS011;29527;55.766;37.570;2023-05-24T14:17:01;13.18;;;7.10;;
37791;SDS011;29527;55.766;37.570;2023-05-24T14:19:26;11.40;;;6.53;;
37791;SDS011;29527;55.766;37.570;2023-05-24T14:21:52;14.15;;;6.85;;
37791;SDS011;29527;55.766;37.570;2023-05-24T14:24:17;11.60;;;6.10;;
37791;SDS011;29527;55.766;37.570;2023-05-24T14:26:43;16.10;;;6.65;;
37791;SDS011;29527;55.766;37.570;2023-05-24T14:29:09;17.08;;;6.53;;
37791;SDS011;29527;55.766;37.570;2023-05-24T14:31:35;9.10;;;5.13;;
37791;SDS011;29527;55.766;37.570;2023-05-24T14:34:06;10.57;;;4.75;;
37791;SDS011;29527;55.766;37.570;2023-05-24T14:36:33;11.98;;;4.90;;
37791;SDS011;29527;55.766;37.570;2023-05-24T14:38:59;15.02;;;5.82;;
37791;SDS011;29527;55.766;37.570;2023-05-24T14:41:25;10.20;;;6.00;;
37791;SDS011;29527;55.766;37.570;2023-05-24T14:43:50;12.80;;;5.45;;
37791;SDS011;29527;55.766;37.570;2023-05-24T14:46:16;9.82;;;5.40;;
37791;SDS011;29527;55.766;37.570;2023-05-24T14:48:42;8.57;;;4.60;;